Time;durP1;ratioP1;P1;durP2;ratioP2;P2;SDS_P1;SDS_P2;PMS_P1;PMS_P2;Temp;Humidity;BMP_temperature;BMP_pressure;BME280_temperature;BME280_humidity;BME280_pressure;Samples;Min_cycle;Max_cycle;Signal;HPM_P1;HPM_P2
2023/12/05 00:00:48;;;;;;;48.53;30.17;;;;;;;-0.58;100.00;98835.19;5051353;28;20229;-72
2023/12/05 00:03:14;;;;;;;39.50;28.27;;;;;;;-0.58;100.00;98837.72;5060673;28;20186;-70
2023/12/05 00:05:39;;;;;;;42.30;31.07;;;;;;;-0.61;100.00;98837.78;5061500;28;20709;-71
2023/12/05 00:08:04;;;;;;;43.87;32.03;;;;;;;-0.55;100.00;98835.09;5058052;28;20184;-73
2023/12/05 00:10:30;;;;;;;41.37;30.53;;;;;;;-0.46;100.00;98825.59;5053785;28;20236;-72
2023/12/05 00:12:55;;;;;;;41.90;30.17;;;;;;;-0.54;100.00;98820.78;5081435;28;20169;-73
2023/12/05 00:15:20;;;;;;;48.83;31.00;;;;;;;-0.49;100.00;98826.50;5073697;28;20180;-73
2023/12/05 00:17:45;;;;;;;41.30;29.50;;;;;;;-0.53;100.00;98812.31;5071240;28;20335;-74
2023/12/05 00:20:11;;;;;;;38.43;29.63;;;;;;;-0.55;100.00;98819.13;5064897;28;20176;-73
2023/12/05 00:22:36;;;;;;;39.80;28.83;;;;;;;-0.62;100.00;98810.06;5087648;28;20185;-73
2023/12/05 00:25:02;;;;;;;42.87;30.77;;;;;;;-0.57;100.00;98811.59;5074230;28;20173;-72
2023/12/05 00:27:28;;;;;;;41.07;29.07;;;;;;;-0.65;100.00;98819.38;5069968;28;20180;-71
2023/12/05 00:29:53;;;;;;;40.23;28.77;;;;;;;-0.67;100.00;98820.28;5054410;28;20626;-71
2023/12/05 00:32:18;;;;;;;41.43;30.43;;;;;;;-0.65;100.00;98816.03;5024085;28;20748;-73
2023/12/05 00:34:45;;;;;;;43.87;30.87;;;;;;;-0.74;100.00;98814.59;5059948;28;20998;-70
2023/12/05 00:37:10;;;;;;;43.10;31.53;;;;;;;-0.66;100.00;98811.84;5051137;28;20185;-71
2023/12/05 00:39:35;;;;;;;44.23;30.27;;;;;;;-0.68;100.00;98818.66;5066298;28;20235;-69
2023/12/05 00:42:00;;;;;;;44.60;32.50;;;;;;;-0.62;100.00;98815.94;5061661;28;20240;-70
2023/12/05 00:44:26;;;;;;;45.37;32.17;;;;;;;-0.61;100.00;98811.72;5062783;28;20258;-70
2023/12/05 00:46:52;;;;;;;44.03;31.40;;;;;;;-0.62;100.00;98807.53;5071314;28;20173;-70
2023/12/05 00:49:17;;;;;;;47.13;29.77;;;;;;;-0.68;100.00;98806.84;5072682;28;20205;-69
2023/12/05 00:51:42;;;;;;;47.50;33.40;;;;;;;-0.57;100.00;98809.06;5063299;28;20532;-71
2023/12/05 00:54:07;;;;;;;41.53;31.47;;;;;;;-0.52;100.00;98799.63;5056729;28;20188;-69
2023/12/05 00:56:33;;;;;;;44.13;31.87;;;;;;;-0.53;100.00;98794.66;5053583;28;20186;-69
2023/12/05 00:58:58;;;;;;;49.67;32.93;;;;;;;-0.46;100.00;98796.09;5053043;28;20201;-70
2023/12/05 01:01:23;;;;;;;47.20;33.03;;;;;;;-0.39;100.00;98801.78;5053994;28;20224;-69
2023/12/05 01:03:51;;;;;;;49.70;34.60;;;;;;;-0.41;100.00;98806.06;5059108;28;20169;-69
2023/12/05 01:06:17;;;;;;;49.07;32.37;;;;;;;-0.50;100.00;98800.44;5052301;28;20571;-69
2023/12/05 01:08:42;;;;;;;52.07;33.90;;;;;;;-0.40;100.00;98800.13;5047626;28;20223;-68
2023/12/05 01:11:10;;;;;;;50.40;34.47;;;;;;;-0.48;100.00;98797.84;5063090;28;20227;-68
2023/12/05 01:13:35;;;;;;;49.27;34.40;;;;;;;-0.52;100.00;98809.75;5079751;28;20176;-67
2023/12/05 01:16:03;;;;;;;43.53;31.00;;;;;;;-0.51;100.00;98808.88;5061824;28;20202;-68
2023/12/05 01:18:28;;;;;;;46.77;32.80;;;;;;;-0.54;100.00;98805.63;5070966;28;20224;-67
2023/12/05 01:20:53;;;;;;;44.40;31.50;;;;;;;-0.58;100.00;98797.28;5069664;28;20370;-67
2023/12/05 01:23:19;;;;;;;45.53;32.70;;;;;;;-0.49;100.00;98797.00;5081185;28;20180;-68
2023/12/05 01:25:44;;;;;;;47.33;32.83;;;;;;;-0.55;100.00;98798.91;5072710;28;20175;-67
2023/12/05 01:28:09;;;;;;;46.73;32.57;;;;;;;-0.47;100.00;98798.66;5071275;28;20238;-65
2023/12/05 01:30:35;;;;;;;43.87;32.53;;;;;;;-0.44;100.00;98803.63;5066088;27;20216;-65
2023/12/05 01:33:00;;;;;;;46.90;32.93;;;;;;;-0.45;100.00;98802.78;5082506;28;20178;-65
2023/12/05 01:35:25;;;;;;;45.10;33.23;;;;;;;-0.33;100.00;98801.59;5067472;28;20609;-66
2023/12/05 01:37:50;;;;;;;49.80;33.17;;;;;;;-0.31;100.00;98804.09;5066102;28;20204;-65
2023/12/05 01:40:16;;;;;;;46.23;33.33;;;;;;;-0.35;100.00;98806.72;5063969;28;20405;-65
2023/12/05 01:42:42;;;;;;;47.37;32.47;;;;;;;-0.16;100.00;98808.69;5078753;28;20178;-65
2023/12/05 01:45:10;;;;;;;45.63;34.10;;;;;;;-0.15;100.00;98809.50;5059693;28;20653;-65
2023/12/05 01:47:39;;;;;;;51.77;34.43;;;;;;;-0.14;100.00;98808.63;5071332;28;20260;-65
2023/12/05 01:50:10;;;;;;;45.00;34.13;;;;;;;-0.30;100.00;98809.09;5062319;28;20175;-65
2023/12/05 01:52:35;;;;;;;47.50;33.70;;;;;;;-0.17;100.00;98801.97;5068632;28;20186;-66
2023/12/05 01:55:01;;;;;;;52.63;34.07;;;;;;;-0.26;100.00;98797.19;5052982;28;20185;-65
2023/12/05 01:57:26;;;;;;;51.33;33.70;;;;;;;-0.20;100.00;98802.88;5052615;28;20551;-65
2023/12/05 01:59:52;;;;;;;48.10;33.07;;;;;;;-0.23;100.00;98795.38;5053424;28;20184;-64
2023/12/05 02:02:18;;;;;;;46.70;31.37;;;;;;;-0.20;100.00;98797.00;5057557;28;20249;-64
2023/12/05 02:04:44;;;;;;;42.90;30.97;;;;;;;-0.05;100.00;98796.53;5053268;28;20659;-65
2023/12/05 02:07:10;;;;;;;47.90;30.93;;;;;;;-0.01;100.00;98792.19;5068997;28;20177;-65
2023/12/05 02:09:36;;;;;;;49.00;32.70;;;;;;;-0.05;100.00;98788.09;5071739;28;20187;-65
2023/12/05 02:12:01;;;;;;;50.03;33.97;;;;;;;0.09;100.00;98787.66;5077260;28;20303;-65
2023/12/05 02:14:26;;;;;;;49.57;32.30;;;;;;;0.05;100.00;98788.63;5071855;28;20189;-65
2023/12/05 02:17:09;;;;;;;49.47;31.43;;;;;;;-0.03;100.00;98788.88;5071781;28;20178;-65
2023/12/05 02:19:46;;;;;;;49.30;33.27;;;;;;;0.07;100.00;98795.28;5071637;28;20488;-65
2023/12/05 02:22:27;;;;;;;47.87;32.03;;;;;;;0.07;100.00;98795.28;5076445;28;20636;-64
2023/12/05 02:25:11;;;;;;;53.80;31.33;;;;;;;0.03;100.00;98792.91;5071927;28;20953;-64
2023/12/05 02:27:39;;;;;;;38.73;28.77;;;;;;;-0.04;100.00;98789.75;5064381;28;20182;-64
2023/12/05 02:30:05;;;;;;;46.80;31.33;;;;;;;0.20;100.00;98784.75;5042263;28;20179;-64
2023/12/05 02:32:30;;;;;;;48.73;32.80;;;;;;;0.10;100.00;98789.28;5066893;28;20272;-64
2023/12/05 02:34:56;;;;;;;50.80;33.10;;;;;;;0.14;100.00;98783.28;5065123;28;20199;-65
2023/12/05 02:37:31;;;;;;;46.57;31.70;;;;;;;0.09;100.00;98791.00;5046751;28;20189;-64
2023/12/05 02:40:07;;;;;;;49.97;31.33;;;;;;;-0.13;100.00;98788.34;5061288;28;20178;-63
2023/12/05 02:42:33;;;;;;;45.20;30.40;;;;;;;0.04;100.00;98784.44;5054093;28;20218;-62
2023/12/05 02:45:02;;;;;;;52.23;31.40;;;;;;;0.14;100.00;98781.56;5067696;28;20276;-63
2023/12/05 02:47:30;;;;;;;58.97;31.70;;;;;;;0.08;100.00;98779.25;5071063;28;20189;-64
2023/12/05 02:49:56;;;;;;;52.07;32.90;;;;;;;0.11;100.00;98775.78;5071220;28;20504;-63
2023/12/05 02:52:21;;;;;;;53.03;31.60;;;;;;;0.15;100.00;98780.69;5063639;28;20224;-63
2023/12/05 02:54:46;;;;;;;47.63;30.73;;;;;;;0.23;100.00;98782.16;5070088;28;20173;-63
2023/12/05 02:57:12;;;;;;;51.67;30.00;;;;;;;0.10;100.00;98785.09;5070663;28;20189;-64
2023/12/05 02:59:37;;;;;;;47.17;32.10;;;;;;;0.22;100.00;98776.25;5062112;28;20183;-64
2023/12/05 03:02:03;;;;;;;51.70;33.93;;;;;;;0.43;100.00;98779.75;5043312;28;20644;-64
2023/12/05 03:04:30;;;;;;;53.00;34.03;;;;;;;0.39;100.00;98780.75;5051869;28;20189;-64
2023/12/05 03:06:55;;;;;;;50.30;32.63;;;;;;;0.21;100.00;98782.22;5051826;28;20181;-63
2023/12/05 03:09:20;;;;;;;51.33;30.40;;;;;;;0.18;100.00;98781.47;5052146;28;20182;-63
2023/12/05 03:11:45;;;;;;;45.90;30.20;;;;;;;0.21;100.00;98778.84;5055184;28;20621;-64
2023/12/05 03:14:11;;;;;;;45.23;31.23;;;;;;;0.30;100.00;98783.59;5054279;28;20181;-64
2023/12/05 03:16:36;;;;;;;44.87;31.20;;;;;;;0.21;100.00;98783.88;5051890;28;20652;-63
2023/12/05 03:19:01;;;;;;;49.93;30.80;;;;;;;0.26;100.00;98776.97;5050341;28;20579;-63
2023/12/05 03:21:27;;;;;;;42.60;29.17;;;;;;;0.21;100.00;98774.63;5052540;28;20238;-63
2023/12/05 03:23:52;;;;;;;45.67;29.50;;;;;;;0.38;100.00;98773.22;5063412;28;20221;-64
2023/12/05 03:26:21;;;;;;;49.00;29.90;;;;;;;0.07;100.00;98764.94;5051588;28;20183;-62
2023/12/05 03:28:51;;;;;;;46.43;29.87;;;;;;;-0.18;100.00;98770.78;5051689;28;20217;-63
2023/12/05 03:31:17;;;;;;;41.90;27.73;;;;;;;-0.01;100.00;98770.25;5070416;28;20304;-62
2023/12/05 03:33:42;;;;;;;45.57;27.93;;;;;;;0.15;100.00;98769.75;5077155;28;20260;-62
2023/12/05 03:36:08;;;;;;;44.53;27.50;;;;;;;0.16;100.00;98771.38;5067255;28;20199;-63
2023/12/05 03:38:33;;;;;;;45.17;29.13;;;;;;;0.30;100.00;98763.38;5050626;28;20289;-63
2023/12/05 03:40:59;;;;;;;48.90;30.23;;;;;;;0.34;100.00;98764.91;5052005;28;20220;-64
2023/12/05 03:43:24;;;;;;;41.40;28.10;;;;;;;0.38;100.00;98763.91;5063428;28;20193;-64
2023/12/05 03:45:49;;;;;;;49.00;31.23;;;;;;;0.33;100.00;98765.78;5056166;28;20184;-63
2023/12/05 03:48:15;;;;;;;52.60;31.40;;;;;;;0.32;100.00;98771.72;5055098;28;20191;-64
2023/12/05 03:50:40;;;;;;;47.23;30.37;;;;;;;0.34;100.00;98769.16;5050155;28;20245;-64
2023/12/05 03:53:05;;;;;;;48.10;31.30;;;;;;;0.34;100.00;98772.50;5065667;28;20190;-63
2023/12/05 03:55:33;;;;;;;44.47;29.03;;;;;;;0.38;100.00;98775.75;5055071;28;20272;-64
2023/12/05 03:57:58;;;;;;;46.03;30.13;;;;;;;0.25;100.00;98777.84;5063656;28;20599;-64
2023/12/05 04:00:23;;;;;;;48.07;30.93;;;;;;;0.31;100.00;98768.38;5064414;28;20258;-64
2023/12/05 04:02:48;;;;;;;41.80;30.50;;;;;;;0.41;100.00;98770.56;5067626;28;20186;-63
2023/12/05 04:05:14;;;;;;;49.30;30.53;;;;;;;0.14;100.00;98773.16;5057453;28;20547;-62
2023/12/05 04:07:40;;;;;;;49.73;29.50;;;;;;;0.06;100.00;98785.22;5074505;28;20187;-63
2023/12/05 04:10:07;;;;;;;41.07;27.50;;;;;;;-0.04;100.00;98782.16;5064535;28;20189;-62
2023/12/05 04:12:32;;;;;;;43.33;28.30;;;;;;;0.06;100.00;98780.16;5088951;28;20190;-62
2023/12/05 04:14:57;;;;;;;44.20;29.53;;;;;;;0.30;100.00;98776.81;5073580;28;20638;-62
2023/12/05 04:17:22;;;;;;;45.67;28.40;;;;;;;0.11;100.00;98788.41;5074136;28;20226;-64
2023/12/05 04:19:48;;;;;;;49.17;29.70;;;;;;;0.29;100.00;98780.22;5073649;28;20217;-62
2023/12/05 04:22:13;;;;;;;42.80;28.77;;;;;;;0.15;100.00;98775.63;5079942;28;20230;-63
2023/12/05 04:24:38;;;;;;;42.50;27.90;;;;;;;0.20;100.00;98780.56;5073369;28;20182;-63
2023/12/05 04:27:04;;;;;;;46.83;26.80;;;;;;;0.28;100.00;98778.56;5073438;28;20186;-62
2023/12/05 04:29:29;;;;;;;40.37;26.43;;;;;;;0.46;100.00;98782.19;5073137;28;20243;-63
2023/12/05 04:31:54;;;;;;;43.47;30.67;;;;;;;0.67;100.00;98784.03;5042157;27;20228;-63
2023/12/05 04:34:19;;;;;;;40.93;28.17;;;;;;;0.72;100.00;98780.47;5072398;28;20183;-63
2023/12/05 04:36:45;;;;;;;39.30;27.53;;;;;;;0.45;100.00;98778.00;5071421;28;20207;-63
2023/12/05 04:39:10;;;;;;;43.70;28.47;;;;;;;0.23;100.00;98777.91;5072203;28;20210;-63
2023/12/05 04:41:35;;;;;;;42.47;27.83;;;;;;;0.34;100.00;98779.25;5064937;28;20286;-62
2023/12/05 04:44:01;;;;;;;34.67;24.27;;;;;;;0.30;100.00;98778.53;5072998;28;20176;-62
2023/12/05 04:46:26;;;;;;;38.20;26.30;;;;;;;0.63;100.00;98776.56;5072426;28;20258;-63
2023/12/05 04:48:51;;;;;;;36.93;26.80;;;;;;;0.63;100.00;98783.31;5071576;28;20189;-62
2023/12/05 04:51:19;;;;;;;39.23;27.00;;;;;;;0.60;100.00;98784.25;5064125;28;20223;-63
2023/12/05 04:53:45;;;;;;;33.23;26.73;;;;;;;0.64;100.00;98773.16;5059679;28;20193;-62
2023/12/05 04:56:10;;;;;;;37.03;27.13;;;;;;;0.66;100.00;98782.38;5054871;28;20184;-62
2023/12/05 04:58:36;;;;;;;38.33;26.87;;;;;;;0.80;100.00;98775.13;5054305;28;20200;-62
2023/12/05 05:01:01;;;;;;;37.20;26.60;;;;;;;0.66;100.00;98780.69;5051461;28;20254;-62
2023/12/05 05:03:26;;;;;;;35.37;25.93;;;;;;;0.69;100.00;98775.50;5062255;28;20192;-62
2023/12/05 05:05:52;;;;;;;43.87;27.63;;;;;;;0.72;100.00;98774.56;5053064;28;20668;-61
2023/12/05 05:08:17;;;;;;;40.37;28.30;;;;;;;0.63;100.00;98779.09;5054245;28;20194;-61
2023/12/05 05:10:42;;;;;;;39.40;27.97;;;;;;;0.62;100.00;98774.91;5049294;28;20230;-61
2023/12/05 05:13:07;;;;;;;40.60;27.60;;;;;;;0.47;100.00;98775.41;5064187;28;20589;-61
2023/12/05 05:15:33;;;;;;;40.40;28.97;;;;;;;0.21;100.00;98777.16;5040244;28;20184;-60
2023/12/05 05:17:58;;;;;;;47.73;27.37;;;;;;;0.41;100.00;98776.47;5054476;28;20640;-61
2023/12/05 05:20:23;;;;;;;39.10;27.60;;;;;;;0.30;100.00;98779.34;5047480;28;20231;-61
2023/12/05 05:22:48;;;;;;;36.53;27.90;;;;;;;0.42;100.00;98779.81;5066667;28;20204;-62
2023/12/05 05:25:15;;;;;;;46.43;28.27;;;;;;;0.57;100.00;98776.78;5055530;28;20580;-61
2023/12/05 05:27:40;;;;;;;44.27;27.90;;;;;;;0.50;100.00;98777.00;5054653;28;20642;-61
2023/12/05 05:30:06;;;;;;;38.83;28.17;;;;;;;0.44;100.00;98776.34;5043750;28;20183;-61
2023/12/05 05:32:31;;;;;;;36.03;25.90;;;;;;;0.37;100.00;98782.50;5068705;28;20536;-60
2023/12/05 05:34:56;;;;;;;37.80;27.03;;;;;;;0.27;100.00;98787.06;5055519;28;20598;-60
2023/12/05 05:37:22;;;;;;;37.07;27.50;;;;;;;0.35;100.00;98788.47;5064431;28;20211;-60
2023/12/05 05:39:47;;;;;;;34.20;25.47;;;;;;;0.55;100.00;98792.88;5071434;28;20189;-60
2023/12/05 05:42:13;;;;;;;40.50;27.27;;;;;;;0.69;100.00;98789.88;5074004;28;20218;-60
2023/12/05 05:44:39;;;;;;;34.60;27.20;;;;;;;0.86;100.00;98784.22;5070784;28;20211;-61
2023/12/05 05:47:04;;;;;;;38.83;27.30;;;;;;;0.84;100.00;98780.91;5067305;28;20187;-61
2023/12/05 05:49:29;;;;;;;35.30;26.53;;;;;;;0.76;100.00;98781.19;5069602;28;20191;-60
2023/12/05 05:51:55;;;;;;;34.93;27.57;;;;;;;0.83;100.00;98780.06;5061306;28;20605;-60
2023/12/05 05:54:21;;;;;;;37.47;27.47;;;;;;;0.68;100.00;98785.69;5054189;28;20183;-60
2023/12/05 05:56:47;;;;;;;34.80;26.10;;;;;;;0.61;100.00;98785.91;5052296;28;20185;-60
2023/12/05 05:59:12;;;;;;;38.37;27.83;;;;;;;0.78;100.00;98787.00;5052892;28;20206;-61
2023/12/05 06:01:38;;;;;;;39.70;28.33;;;;;;;0.82;100.00;98785.19;5053933;28;20296;-59
2023/12/05 06:04:03;;;;;;;35.17;26.23;;;;;;;0.81;100.00;98802.09;5055943;28;20175;-59
2023/12/05 06:06:28;;;;;;;36.17;26.93;;;;;;;0.74;100.00;98793.06;5052144;28;20229;-60
2023/12/05 06:08:55;;;;;;;38.70;28.07;;;;;;;0.89;100.00;98792.50;5053129;28;20180;-59
2023/12/05 06:11:20;;;;;;;36.93;27.37;;;;;;;0.84;100.00;98793.56;5052597;28;20329;-58
2023/12/05 06:13:46;;;;;;;37.40;26.67;;;;;;;0.61;100.00;98797.75;5063686;28;20624;-59
2023/12/05 06:16:11;;;;;;;33.07;26.13;;;;;;;0.76;100.00;98799.72;5072269;28;20229;-59
2023/12/05 06:18:38;;;;;;;37.47;27.67;;;;;;;0.81;100.00;98794.50;5070986;28;20429;-59
2023/12/05 06:21:03;;;;;;;45.80;28.43;;;;;;;0.57;100.00;98796.16;5069834;28;20241;-58
2023/12/05 06:23:29;;;;;;;39.60;27.10;;;;;;;0.51;100.00;98793.84;5079624;28;20266;-60
2023/12/05 06:25:54;;;;;;;36.47;26.77;;;;;;;0.59;100.00;98795.25;5072196;28;20544;-60
2023/12/05 06:28:19;;;;;;;36.53;26.53;;;;;;;0.63;100.00;98791.75;5070793;28;20184;-59
2023/12/05 06:30:44;;;;;;;35.53;28.43;;;;;;;0.69;100.00;98790.69;5067090;28;20229;-59
2023/12/05 06:33:10;;;;;;;39.87;28.53;;;;;;;0.42;100.00;98789.94;5081202;28;20186;-58
2023/12/05 06:35:35;;;;;;;37.40;27.47;;;;;;;0.33;100.00;98798.66;5071904;28;20224;-58
2023/12/05 06:38:00;;;;;;;34.40;26.50;;;;;;;0.51;100.00;98794.69;5070694;28;20600;-58
2023/12/05 06:40:25;;;;;;;35.47;26.30;;;;;;;0.70;100.00;98802.47;5063913;28;20218;-59
2023/12/05 06:42:51;;;;;;;34.87;26.43;;;;;;;0.72;100.00;98810.84;5081149;28;20181;-59
2023/12/05 06:45:16;;;;;;;37.47;28.57;;;;;;;0.75;100.00;98809.91;5071387;28;20594;-59
2023/12/05 06:47:41;;;;;;;36.37;26.87;;;;;;;0.69;100.00;98805.06;5070131;28;20223;-59
2023/12/05 06:50:10;;;;;;;36.00;27.33;;;;;;;0.80;100.00;98801.25;5061644;28;20262;-58
2023/12/05 06:52:40;;;;;;;39.30;28.93;;;;;;;0.72;100.00;98807.47;5071327;28;20215;-58
2023/12/05 06:55:06;;;;;;;35.53;26.43;;;;;;;0.75;100.00;98814.97;5070477;28;20186;-60
2023/12/05 06:57:31;;;;;;;34.57;26.37;;;;;;;0.82;100.00;98813.88;5070223;28;20187;-59
2023/12/05 06:59:57;;;;;;;41.53;27.80;;;;;;;0.85;100.00;98811.22;5061861;28;20552;-59
2023/12/05 07:02:22;;;;;;;47.87;33.00;;;;;;;0.79;100.00;98812.28;5057041;28;20238;-60
2023/12/05 07:04:47;;;;;;;41.10;29.63;;;;;;;0.77;100.00;98819.09;5053933;28;20239;-59
2023/12/05 07:07:13;;;;;;;39.27;29.13;;;;;;;0.84;100.00;98818.88;5054998;28;20241;-59
2023/12/05 07:09:38;;;;;;;45.17;31.73;;;;;;;0.92;100.00;98819.44;5053371;28;20265;-59
2023/12/05 07:12:03;;;;;;;38.80;27.27;;;;;;;0.86;100.00;98827.25;5056555;28;20231;-61
2023/12/05 07:14:29;;;;;;;39.77;29.27;;;;;;;0.93;100.00;98834.56;5045713;28;20190;-60
2023/12/05 07:16:54;;;;;;;43.03;29.40;;;;;;;0.80;100.00;98838.41;5058944;28;20559;-60
2023/12/05 07:19:19;;;;;;;40.90;27.90;;;;;;;0.90;100.00;98834.66;5055275;28;20219;-59
2023/12/05 07:21:44;;;;;;;40.50;28.10;;;;;;;0.95;100.00;98842.94;5057744;28;20227;-61
2023/12/05 07:24:10;;;;;;;37.63;27.30;;;;;;;1.00;100.00;98844.50;5057151;28;20176;-60
2023/12/05 07:26:36;;;;;;;38.43;27.63;;;;;;;0.98;100.00;98853.84;5056932;28;20182;-59
2023/12/05 07:29:01;;;;;;;34.77;25.30;;;;;;;0.87;100.00;98849.13;5054847;28;20199;-59
2023/12/05 07:31:26;;;;;;;37.07;26.73;;;;;;;0.98;100.00;98852.16;5055434;28;20692;-59
2023/12/05 07:33:53;;;;;;;38.50;27.23;;;;;;;1.03;100.00;98852.81;5064307;28;20180;-60
2023/12/05 07:36:19;;;;;;;40.47;28.10;;;;;;;1.06;100.00;98859.47;5064675;28;20298;-60
2023/12/05 07:38:44;;;;;;;39.00;25.97;;;;;;;0.97;100.00;98858.09;5063324;28;20315;-59
2023/12/05 07:41:22;;;;;;;38.03;27.13;;;;;;;0.87;100.00;98857.56;5048089;28;20672;-58
2023/12/05 07:43:49;;;;;;;35.63;26.17;;;;;;;0.98;100.00;98851.31;5068530;28;20191;-60
2023/12/05 07:46:14;;;;;;;41.30;26.23;;;;;;;1.04;100.00;98864.59;5069998;28;20361;-60
2023/12/05 07:48:40;;;;;;;32.40;25.80;;;;;;;1.11;100.00;98868.53;5058596;28;20262;-59
2023/12/05 07:51:05;;;;;;;35.17;26.17;;;;;;;1.12;100.00;98872.72;5055074;28;20235;-59
2023/12/05 07:53:30;;;;;;;36.20;26.30;;;;;;;1.23;100.00;98871.53;5049075;28;20239;-58
2023/12/05 07:55:55;;;;;;;39.50;26.93;;;;;;;1.24;100.00;98878.22;5058942;28;20186;-59
2023/12/05 07:58:21;;;;;;;38.20;25.97;;;;;;;1.13;100.00;98876.91;5059475;28;20287;-59
2023/12/05 08:00:46;;;;;;;40.27;26.57;;;;;;;1.19;100.00;98883.47;5055922;28;20633;-60
2023/12/05 08:03:13;;;;;;;35.97;25.83;;;;;;;1.16;100.00;98877.69;5060376;28;20191;-59
2023/12/05 08:05:39;;;;;;;37.13;28.33;;;;;;;1.00;100.00;98875.69;5059580;28;20176;-60
2023/12/05 08:08:04;;;;;;;38.90;26.07;;;;;;;1.02;100.00;98875.63;5055053;28;20204;-59
2023/12/05 08:10:29;;;;;;;35.17;24.77;;;;;;;1.09;100.00;98879.59;5045387;28;20343;-59
2023/12/05 08:12:55;;;;;;;31.30;24.03;;;;;;;1.02;100.00;98870.56;5060457;28;20208;-59
2023/12/05 08:15:20;;;;;;;36.03;25.10;;;;;;;1.03;100.00;98875.59;5060684;28;20188;-58
2023/12/05 08:17:45;;;;;;;41.97;26.80;;;;;;;1.18;100.00;98880.97;5055538;28;20668;-58
2023/12/05 08:20:11;;;;;;;37.60;25.80;;;;;;;1.23;100.00;98886.75;5048303;28;20180;-60
2023/12/05 08:22:36;;;;;;;34.70;24.10;;;;;;;1.23;100.00;98886.75;5064103;28;20576;-59
2023/12/05 08:25:02;;;;;;;34.43;27.00;;;;;;;1.32;100.00;98886.41;5060919;28;20664;-57
2023/12/05 08:27:27;;;;;;;38.43;27.27;;;;;;;1.38;100.00;98886.16;5070702;28;20292;-59
2023/12/05 08:29:52;;;;;;;32.77;23.77;;;;;;;1.34;100.00;98891.41;5071523;28;20198;-57
2023/12/05 08:32:17;;;;;;;45.30;26.57;;;;;;;1.43;100.00;98881.75;5050095;27;20289;-58
2023/12/05 08:34:43;;;;;;;35.60;24.87;;;;;;;1.45;100.00;98890.13;5067121;28;20180;-59
2023/12/05 08:37:08;;;;;;;33.53;24.83;;;;;;;1.56;100.00;98893.97;5063031;28;20662;-58
2023/12/05 08:39:33;;;;;;;35.10;26.30;;;;;;;1.59;100.00;98894.69;5065224;28;20196;-58
2023/12/05 08:41:59;;;;;;;40.67;26.77;;;;;;;1.48;100.00;98901.88;5061142;28;20292;-58
2023/12/05 08:44:25;;;;;;;33.30;24.70;;;;;;;1.50;100.00;98904.34;5066696;28;20496;-58
2023/12/05 08:46:50;;;;;;;35.17;24.20;;;;;;;1.66;100.00;98900.34;5063450;28;20471;-56
2023/12/05 08:49:15;;;;;;;33.63;25.63;;;;;;;1.88;100.00;98905.44;5065877;28;20188;-59
2023/12/05 08:51:41;;;;;;;32.23;25.13;;;;;;;1.93;100.00;98900.22;5056157;28;20321;-58
2023/12/05 08:54:06;;;;;;;32.27;23.83;;;;;;;2.04;100.00;98904.88;5059884;28;20186;-58
2023/12/05 08:56:32;;;;;;;32.47;25.53;;;;;;;2.16;100.00;98899.31;5067225;28;20191;-58
2023/12/05 08:58:57;;;;;;;32.53;24.80;;;;;;;2.21;100.00;98902.50;5056318;28;20221;-57
2023/12/05 09:01:26;;;;;;;27.33;22.20;;;;;;;2.31;100.00;98904.66;5053279;28;20233;-57
2023/12/05 09:03:51;;;;;;;35.07;24.40;;;;;;;2.35;100.00;98899.41;5062227;28;20288;-57
2023/12/05 09:06:16;;;;;;;30.97;22.83;;;;;;;2.40;100.00;98910.19;5066146;28;20252;-59
2023/12/05 09:08:42;;;;;;;26.33;19.93;;;;;;;2.25;100.00;98901.47;5065633;28;20209;-58
2023/12/05 09:11:07;;;;;;;31.30;22.23;;;;;;;2.54;100.00;98907.13;5063525;28;20228;-58
2023/12/05 09:13:33;;;;;;;27.63;21.63;;;;;;;2.80;100.00;98909.47;5073233;28;20176;-58
2023/12/05 09:15:59;;;;;;;22.67;19.17;;;;;;;2.71;100.00;98908.13;5054651;28;20270;-59
2023/12/05 09:18:24;;;;;;;26.47;19.33;;;;;;;2.95;100.00;98920.69;5056526;28;20235;-59
2023/12/05 09:20:49;;;;;;;23.63;18.60;;;;;;;3.06;100.00;98918.53;5053223;28;20225;-58
2023/12/05 09:23:15;;;;;;;24.33;19.63;;;;;;;3.22;100.00;98922.09;5071718;28;20239;-58
2023/12/05 09:25:40;;;;;;;21.10;17.20;;;;;;;3.29;100.00;98925.16;5069491;28;20285;-60
2023/12/05 09:28:05;;;;;;;22.87;17.93;;;;;;;3.27;100.00;98928.69;5068425;28;20223;-58
2023/12/05 09:30:31;;;;;;;18.00;13.40;;;;;;;3.50;100.00;98930.22;5052404;28;20399;-58
2023/12/05 09:32:56;;;;;;;17.77;12.77;;;;;;;3.73;100.00;98929.16;5068389;28;20165;-57
2023/12/05 09:35:21;;;;;;;14.17;10.90;;;;;;;3.71;100.00;98931.78;5063421;28;20209;-57
2023/12/05 09:37:46;;;;;;;8.30;6.63;;;;;;;3.73;100.00;98931.72;5065108;28;20200;-57
2023/12/05 09:40:12;;;;;;;7.50;4.13;;;;;;;3.62;100.00;98944.09;5053095;28;20241;-57
2023/12/05 09:42:41;;;;;;;5.93;3.93;;;;;;;3.68;100.00;98942.13;5067038;28;20239;-57
2023/12/05 09:45:13;;;;;;;7.50;4.37;;;;;;;3.69;100.00;98941.19;5053568;28;20292;-58
2023/12/05 09:47:41;;;;;;;4.03;3.60;;;;;;;3.68;100.00;98944.66;5054806;28;20260;-58
2023/12/05 09:50:07;;;;;;;9.33;3.70;;;;;;;3.77;100.00;98933.25;5048699;28;20182;-57
2023/12/05 09:52:34;;;;;;;5.43;3.70;;;;;;;3.75;100.00;98935.03;5066346;28;20192;-58
2023/12/05 09:55:00;;;;;;;5.47;3.77;;;;;;;3.79;100.00;98931.44;5059094;28;20290;-58
2023/12/05 09:57:25;;;;;;;4.23;3.50;;;;;;;3.70;100.00;98929.31;5065964;28;20572;-58
2023/12/05 09:59:51;;;;;;;5.77;3.30;;;;;;;3.66;100.00;98932.88;5064153;28;20178;-58
2023/12/05 10:02:19;;;;;;;4.20;2.80;;;;;;;3.61;100.00;98939.91;5056926;28;20221;-59
2023/12/05 10:04:44;;;;;;;4.20;3.30;;;;;;;3.61;100.00;98937.34;5053736;28;20522;-58
2023/12/05 10:07:13;;;;;;;3.50;3.17;;;;;;;3.56;100.00;98937.56;5063439;28;20182;-58
2023/12/05 10:09:40;;;;;;;4.90;3.47;;;;;;;3.53;100.00;98927.53;5054687;28;20222;-59
2023/12/05 10:12:08;;;;;;;6.07;2.93;;;;;;;3.57;100.00;98935.84;5060975;28;20226;-58
2023/12/05 10:14:33;;;;;;;4.97;3.10;;;;;;;3.59;100.00;98942.50;5057662;28;20212;-59
2023/12/05 10:17:00;;;;;;;4.00;2.90;;;;;;;3.71;100.00;98939.41;5063468;28;20257;-58
2023/12/05 10:19:26;;;;;;;4.90;2.93;;;;;;;3.82;100.00;98931.31;5058515;28;20209;-62
2023/12/05 10:21:51;;;;;;;2.90;2.60;;;;;;;3.83;100.00;98938.06;5060155;28;20224;-62
2023/12/05 10:24:17;;;;;;;5.97;2.97;;;;;;;3.80;100.00;98934.81;5069884;28;20263;-63
2023/12/05 10:26:46;;;;;;;3.40;2.63;;;;;;;3.72;100.00;98933.44;5067904;28;20216;-57
2023/12/05 10:29:11;;;;;;;6.20;2.50;;;;;;;3.76;100.00;98931.59;5069353;28;20756;-65
2023/12/05 10:31:37;;;;;;;3.07;2.53;;;;;;;3.78;100.00;98934.06;5053464;28;20311;-63
2023/12/05 10:34:05;;;;;;;4.13;2.60;;;;;;;3.73;100.00;98929.16;5055610;28;20177;-63
2023/12/05 10:36:30;;;;;;;3.37;2.30;;;;;;;4.07;100.00;98927.63;5048672;28;20651;-61
2023/12/05 10:38:55;;;;;;;4.90;2.43;;;;;;;4.01;100.00;98933.00;5056368;28;20264;-60
2023/12/05 10:41:24;;;;;;;3.63;2.40;;;;;;;3.97;100.00;98932.34;5055163;28;20257;-60
2023/12/05 10:43:51;;;;;;;3.17;2.33;;;;;;;3.86;100.00;98932.81;5062159;28;20184;-60
2023/12/05 10:46:17;;;;;;;2.50;2.10;;;;;;;3.86;100.00;98939.63;5046913;28;20216;-59
2023/12/05 10:48:44;;;;;;;3.20;2.70;;;;;;;3.86;100.00;98929.47;5058729;28;20275;-61
2023/12/05 10:51:09;;;;;;;6.30;2.40;;;;;;;3.87;100.00;98926.84;5050291;28;20234;-59
2023/12/05 10:53:36;;;;;;;4.63;3.10;;;;;;;3.88;100.00;98925.09;5058213;28;20180;-64
2023/12/05 10:56:13;;;;;;;5.53;2.77;;;;;;;3.95;100.00;98918.84;5045205;28;20545;-57
2023/12/05 10:58:42;;;;;;;6.00;2.60;;;;;;;4.09;100.00;98925.84;5057177;28;20260;-57
2023/12/05 11:01:10;;;;;;;4.73;2.80;;;;;;;4.28;100.00;98922.41;5048181;28;20755;-56
2023/12/05 11:03:37;;;;;;;7.07;2.70;;;;;;;4.12;100.00;98924.84;5067637;28;20185;-57
2023/12/05 11:06:03;;;;;;;4.33;2.93;;;;;;;4.17;100.00;98921.22;5068897;28;20187;-56
2023/12/05 11:08:28;;;;;;;4.37;2.67;;;;;;;4.13;100.00;98935.00;5068650;28;20614;-56
2023/12/05 11:10:56;;;;;;;2.77;2.50;;;;;;;3.97;100.00;98919.59;5066709;28;20315;-57